Time;durP1;ratioP1;P1;durP2;ratioP2;P2;SDS_P1;SDS_P2;PMS_P1;PMS_P2;Temp;Humidity;BMP_temperature;BMP_pressure;BME280_temperature;BME280_humidity;BME280_pressure;Samples;Min_cycle;Max_cycle;Signal;HPM_P1;HPM_P2
2022/07/02 00:00:35;;;;;;;2.33;0.40;;;;;;;18.41;100.00;100944.98;5155573;56;1141200;-79
2022/07/02 00:05:46;;;;;;;3.13;0.60;;;;;;;18.38;100.00;100947.47;5206045;56;1141223;-80
2022/07/02 00:10:53;;;;;;;0.55;0.30;;;;;;;18.39;100.00;100964.38;5154221;56;1141058;-79
2022/07/02 00:16:00;;;;;;;2.12;0.37;;;;;;;18.33;100.00;100997.17;5249206;54;1141258;-81
2022/07/02 00:21:06;;;;;;;0.55;0.25;;;;;;;18.21;100.00;101010.79;5295664;55;1141047;-78
2022/07/02 00:26:19;;;;;;;0.10;0.10;;;;;;;18.20;100.00;101008.27;5236652;56;1141147;-81
2022/07/02 00:31:25;;;;;;;0.68;0.10;;;;;;;18.10;100.00;101000.84;5288041;55;1141151;-82
2022/07/02 00:36:33;;;;;;;0.40;0.30;;;;;;;18.02;100.00;101004.31;5236366;56;1141123;-82
2022/07/02 00:41:39;;;;;;;1.47;0.30;;;;;;;17.81;100.00;101027.86;5245009;55;1141185;-81
2022/07/02 00:46:47;;;;;;;1.60;0.60;;;;;;;17.52;100.00;101024.88;5222793;56;1141475;-80
2022/07/02 00:51:53;;;;;;;0.27;0.23;;;;;;;17.30;100.00;101023.12;5214962;56;1141165;-79
2022/07/02 00:56:58;;;;;;;1.03;0.20;;;;;;;17.20;100.00;101032.05;5263171;55;1141109;-79
2022/07/02 01:02:07;;;;;;;0.30;0.30;;;;;;;17.08;100.00;101033.74;5235517;55;1141350;-81
2022/07/02 01:07:13;;;;;;;0.40;0.20;;;;;;;17.02;100.00;101049.86;5236327;55;1141154;-81
2022/07/02 01:12:25;;;;;;;0.17;0.17;;;;;;;16.99;100.00;101056.83;5343077;54;1141075;-80
2022/07/02 01:17:30;;;;;;;0.33;0.20;;;;;;;16.96;100.00;101059.79;5388285;54;1141476;-79
2022/07/02 01:22:44;;;;;;;0.67;0.20;;;;;;;16.92;100.00;101066.44;5355947;54;1141164;-80
2022/07/02 01:27:48;;;;;;;0.17;0.10;;;;;;;16.89;100.00;101060.05;5390285;54;1141339;-81
2022/07/02 01:32:54;;;;;;;2.70;0.30;;;;;;;16.84;100.00;101061.81;5356687;54;1141136;-78
2022/07/02 01:38:00;;;;;;;0.28;0.28;;;;;;;16.78;100.00;101062.41;5387296;54;1140934;-80
2022/07/02 01:48:14;;;;;;;3.07;0.40;;;;;;;16.69;100.00;101057.92;5309718;55;46373;-79
2022/07/02 01:53:20;;;;;;;0.20;0.17;;;;;;;16.68;100.00;101065.59;5074242;57;1136877;-79
2022/07/02 01:58:26;;;;;;;3.27;0.20;;;;;;;16.75;100.00;101085.90;5055930;58;1141067;-78
2022/07/02 02:03:31;;;;;;;2.07;0.30;;;;;;;16.65;100.00;101097.92;5047186;58;1141258;-79
2022/07/02 02:08:37;;;;;;;0.90;0.80;;;;;;;16.67;100.00;101103.97;5061113;58;1141048;-79
2022/07/02 02:13:43;;;;;;;0.80;0.30;;;;;;;16.71;100.00;101111.20;4982938;58;1141113;-78
2022/07/02 02:18:49;;;;;;;0.63;0.30;;;;;;;16.60;100.00;101121.53;4988402;58;1141185;-81
2022/07/02 02:23:57;;;;;;;4.13;0.50;;;;;;;16.60;100.00;101134.05;5067383;58;1141127;-80
2022/07/02 02:29:03;;;;;;;0.82;0.20;;;;;;;16.61;100.00;101149.93;5100033;57;1141206;-79
2022/07/02 02:34:09;;;;;;;0.37;0.37;;;;;;;16.57;100.00;101151.19;5100160;57;1141101;-79
2022/07/02 02:39:15;;;;;;;3.67;0.47;;;;;;;16.53;100.00;101167.14;5001908;56;1138990;-78
2022/07/02 02:44:21;;;;;;;2.50;0.50;;;;;;;16.52;100.00;101174.80;4959356;58;1139278;-78
2022/07/02 02:49:26;;;;;;;5.10;1.90;;;;;;;16.47;100.00;101178.41;5049378;58;1139165;-80
2022/07/02 02:54:32;;;;;;;1.97;0.53;;;;;;;16.34;100.00;101187.19;5048850;58;1139108;-80
2022/07/02 02:59:38;;;;;;;0.93;0.90;;;;;;;16.27;100.00;101194.05;5026040;58;1139079;-79
2022/07/02 03:04:44;;;;;;;3.60;0.87;;;;;;;16.22;100.00;101201.12;5102958;57;1139209;-80
2022/07/02 03:09:50;;;;;;;0.73;0.50;;;;;;;16.15;100.00;101202.69;5040361;57;1139175;-80
2022/07/02 03:14:56;;;;;;;2.53;0.40;;;;;;;16.08;100.00;101212.20;5103429;57;1139069;-79
2022/07/02 03:20:02;;;;;;;0.60;0.50;;;;;;;16.13;100.00;101210.83;5052684;57;1139034;-78
2022/07/02 03:25:09;;;;;;;1.80;0.80;;;;;;;16.13;100.00;101199.31;4998459;58;1139083;-79
2022/07/02 03:30:14;;;;;;;1.07;0.40;;;;;;;16.13;100.00;101204.16;4978391;59;1139244;-80
2022/07/02 03:35:20;;;;;;;2.83;0.70;;;;;;;16.19;100.00;101216.11;5081734;58;1139112;-80
2022/07/02 03:40:27;;;;;;;1.03;0.53;;;;;;;16.17;100.00;101220.25;5097198;58;1139087;-80
2022/07/02 03:45:33;;;;;;;1.07;0.40;;;;;;;16.19;100.00;101234.27;5097214;58;1139082;-80
2022/07/02 03:50:40;;;;;;;7.50;0.60;;;;;;;16.13;100.00;101239.34;5125651;57;1139014;-79
2022/07/02 03:55:46;;;;;;;2.07;0.70;;;;;;;16.18;100.00;101253.13;5128637;57;1139174;-80
2022/07/02 04:00:52;;;;;;;1.20;0.70;;;;;;;16.18;100.00;101257.97;5129393;57;1139032;-80
2022/07/02 04:05:57;;;;;;;0.60;0.60;;;;;;;16.19;100.00;101269.49;5129392;57;1139054;-79
2022/07/02 04:11:03;;;;;;;2.10;1.07;;;;;;;16.24;100.00;101278.41;5128445;57;1136929;-78
2022/07/02 04:16:09;;;;;;;2.23;0.97;;;;;;;16.21;100.00;101272.84;5123612;57;1140976;-78
2022/07/02 04:21:15;;;;;;;3.00;0.73;;;;;;;16.21;100.00;101273.33;5105729;57;1141063;-80
2022/07/02 04:26:21;;;;;;;1.23;1.00;;;;;;;16.24;100.00;101269.91;5043851;57;1140606;-76
2022/07/02 04:31:26;;;;;;;1.00;1.00;;;;;;;16.25;100.00;101274.27;5044630;56;1141116;-78
2022/07/02 04:36:32;;;;;;;1.60;0.90;;;;;;;16.19;100.00;101286.32;5193297;56;1141160;-76
2022/07/02 04:41:38;;;;;;;1.60;0.70;;;;;;;16.27;100.00;101294.15;5088721;57;1141033;-77
2022/07/02 04:46:44;;;;;;;2.20;0.80;;;;;;;16.24;100.00;101300.60;5052118;58;1141177;-78
2022/07/02 04:51:50;;;;;;;3.50;1.40;;;;;;;16.20;100.00;101311.19;5016503;59;1141220;-78
2022/07/02 04:56:56;;;;;;;1.50;1.50;;;;;;;16.14;100.00;101313.09;4954876;59;1141376;-78
2022/07/02 05:02:02;;;;;;;2.80;1.83;;;;;;;16.01;100.00;101324.48;4959785;59;1141406;-77
2022/07/02 05:07:08;;;;;;;3.80;2.27;;;;;;;15.85;100.00;101328.14;4947899;59;1141004;-75
2022/07/02 05:12:14;;;;;;;4.63;2.37;;;;;;;15.76;100.00;101341.77;4963655;59;1141031;-76
2022/07/02 05:17:20;;;;;;;1.80;1.70;;;;;;;15.74;100.00;101347.71;4905385;58;1141257;-78
2022/07/02 05:22:26;;;;;;;1.80;1.70;;;;;;;15.74;100.00;101349.89;5127364;56;1141063;-76
2022/07/02 05:27:32;;;;;;;2.20;2.10;;;;;;;15.75;100.00;101356.91;5108888;57;1141038;-77
2022/07/02 05:32:38;;;;;;;2.77;2.33;;;;;;;15.80;100.00;101349.86;5107325;57;1141114;-76
2022/07/02 05:37:44;;;;;;;4.70;2.43;;;;;;;15.76;100.00;101363.94;5003514;58;1141108;-78
2022/07/02 05:42:49;;;;;;;5.40;2.83;;;;;;;15.81;100.00;101375.08;5057518;58;1141055;-76
2022/07/02 05:47:55;;;;;;;3.73;3.33;;;;;;;15.89;100.00;101379.73;5058542;58;1141076;-77
2022/07/02 05:53:01;;;;;;;7.83;3.43;;;;;;;15.93;100.00;101386.50;5065110;58;1141418;-77
2022/07/02 05:58:07;;;;;;;4.07;2.37;;;;;;;15.99;100.00;101388.66;5088038;57;1141043;-74
2022/07/02 06:03:13;;;;;;;2.40;2.20;;;;;;;16.11;100.00;101386.73;5133102;57;1141446;-76
2022/07/02 06:08:19;;;;;;;2.20;2.00;;;;;;;16.23;100.00;101381.66;5132293;57;1141380;-77
2022/07/02 06:13:25;;;;;;;3.93;1.70;;;;;;;16.34;100.00;101384.74;5173537;56;1141410;-77
2022/07/02 06:18:30;;;;;;;6.97;2.70;;;;;;;16.45;100.00;101386.81;5116257;57;1141401;-77
2022/07/02 06:23:36;;;;;;;2.73;1.70;;;;;;;16.53;100.00;101399.47;5050379;58;1141459;-76
2022/07/02 06:28:41;;;;;;;2.57;1.20;;;;;;;16.69;100.00;101396.31;5044368;58;1141622;-77
2022/07/02 06:33:47;;;;;;;3.33;1.83;;;;;;;16.75;100.00;101405.97;5072592;58;1141184;-77
2022/07/02 06:38:54;;;;;;;2.40;1.43;;;;;;;16.84;100.00;101411.81;5080600;58;1141197;-79
2022/07/02 06:43:59;;;;;;;2.13;1.77;;;;;;;16.90;100.00;101405.57;5097716;57;1141185;-77
2022/07/02 06:49:05;;;;;;;4.70;2.30;;;;;;;17.06;100.00;101420.09;5140497;57;1141207;-79
2022/07/02 06:54:11;;;;;;;5.10;1.30;;;;;;;17.19;100.00;101424.67;5149445;56;1141124;-76
2022/07/02 06:59:17;;;;;;;4.90;1.70;;;;;;;17.28;100.00;101428.31;5032869;58;1141267;-75
2022/07/02 07:04:23;;;;;;;3.53;1.77;;;;;;;17.48;100.00;101433.19;5002925;58;1141229;-78
2022/07/02 07:09:29;;;;;;;2.43;1.30;;;;;;;17.88;100.00;101426.33;5089892;56;1141470;-79
2022/07/02 07:14:38;;;;;;;2.77;1.40;;;;;;;18.30;100.00;101442.02;5036375;58;1141464;-78
2022/07/02 07:19:45;;;;;;;4.50;1.27;;;;;;;18.20;98.66;101452.24;5102077;57;1141392;-78
2022/07/02 07:24:51;;;;;;;2.67;1.20;;;;;;;18.25;98.66;101461.19;5111857;57;1138987;-76
2022/07/02 07:29:56;;;;;;;1.67;0.83;;;;;;;18.38;98.92;101459.52;5141179;57;1139069;-78
2022/07/02 07:35:03;;;;;;;1.47;1.32;;;;;;;18.65;96.25;101464.08;5141319;57;1139045;-77
2022/07/02 07:40:11;;;;;;;5.80;1.23;;;;;;;18.70;97.52;101468.02;5140852;57;1139198;-77
2022/07/02 07:45:17;;;;;;;3.40;2.08;;;;;;;18.79;93.90;101477.02;5140890;57;1136988;-77
2022/07/02 07:50:23;;;;;;;1.90;1.10;;;;;;;18.60;90.93;101491.34;5141488;56;1136936;-76
2022/07/02 07:55:29;;;;;;;1.87;1.17;;;;;;;18.68;93.43;101494.61;5141274;57;1136939;-78
2022/07/02 08:00:35;;;;;;;4.40;1.27;;;;;;;18.76;88.08;101508.13;5055166;57;1136937;-77
2022/07/02 08:05:41;;;;;;;2.47;1.07;;;;;;;18.94;91.92;101503.67;5078977;57;1137078;-77
2022/07/02 08:10:47;;;;;;;1.25;0.70;;;;;;;19.45;93.95;101506.23;5048529;57;1137446;-76
2022/07/02 08:15:53;;;;;;;8.53;1.55;;;;;;;19.53;87.06;101519.28;5134946;57;1137164;-66
2022/07/02 08:20:59;;;;;;;3.08;1.17;;;;;;;19.30;86.59;101517.98;5141275;57;1137255;-67
2022/07/02 08:26:05;;;;;;;3.85;1.17;;;;;;;19.52;88.26;101531.50;5069286;57;1137210;-65
2022/07/02 08:31:10;;;;;;;3.10;1.22;;;;;;;20.08;90.79;101534.34;5115996;57;1137232;-64
2022/07/02 08:36:17;;;;;;;2.90;0.93;;;;;;;20.25;85.51;101534.81;5138793;57;1136651;-65
2022/07/02 08:41:23;;;;;;;2.40;1.55;;;;;;;20.34;80.81;101553.50;5140619;57;1137005;-63
2022/07/02 08:46:31;;;;;;;2.17;0.88;;;;;;;20.34;80.81;101553.50;5140837;57;1136931;-68
2022/07/02 08:51:38;;;;;;;3.37;0.72;;;;;;;19.91;82.14;101550.81;5064837;57;1137036;-77
2022/07/02 08:56:45;;;;;;;2.72;1.07;;;;;;;20.17;83.91;101554.88;5138906;57;1137205;-76
2022/07/02 09:01:52;;;;;;;2.05;1.07;;;;;;;20.42;83.14;101554.61;5149506;57;1137045;-77
2022/07/02 09:06:58;;;;;;;4.62;1.90;;;;;;;20.81;78.61;101555.84;5052339;57;1136975;-75
2022/07/02 09:12:04;;;;;;;2.67;0.82;;;;;;;20.59;78.98;101551.87;5061316;57;1135171;-75
2022/07/02 09:17:12;;;;;;;2.70;1.30;;;;;;;20.73;78.77;101559.84;5113657;57;1220686;-77
2022/07/02 09:22:18;;;;;;;3.40;1.15;;;;;;;21.05;81.37;101560.01;5146606;57;1138962;-76
2022/07/02 09:27:25;;;;;;;1.27;0.88;;;;;;;21.16;76.18;101567.44;5061989;58;1139003;-75
2022/07/02 09:32:38;;;;;;;1.87;1.10;;;;;;;21.22;78.51;101573.56;5066446;57;1139154;-77
2022/07/02 09:37:44;;;;;;;0.90;0.70;;;;;;;21.48;79.02;101562.19;4966171;58;1139167;-78
2022/07/02 09:42:50;;;;;;;3.52;1.37;;;;;;;21.90;77.56;101567.47;5003799;58;1139047;-78
2022/07/02 09:47:56;;;;;;;4.28;1.00;;;;;;;22.23;78.07;101555.37;4994002;58;1139066;-77
2022/07/02 09:53:02;;;;;;;1.57;1.22;;;;;;;22.32;74.12;101562.44;5028206;58;1138999;-76
2022/07/02 09:58:08;;;;;;;6.00;1.25;;;;;;;22.31;74.26;101563.44;5055128;58;1139195;-77
2022/07/02 10:03:13;;;;;;;4.62;1.20;;;;;;;22.23;68.41;101571.05;5051325;58;1139016;-79
2022/07/02 10:08:20;;;;;;;3.02;1.35;;;;;;;22.15;71.53;101556.75;5053503;58;1139292;-77
2022/07/02 10:13:26;;;;;;;1.84;0.90;;;;;;;22.09;71.78;101563.14;4992431;58;1139019;-79
2022/07/02 10:18:32;;;;;;;5.83;1.30;;;;;;;22.25;69.36;101571.72;5074932;57;1138955;-78
2022/07/02 10:23:40;;;;;;;13.83;1.40;;;;;;;22.55;72.60;101568.81;5119053;57;1138941;-78
2022/07/02 10:28:46;;;;;;;6.65;1.30;;;;;;;22.60;71.17;101563.77;5056183;58;1141151;-79
2022/07/02 10:34:21;;;;;;;3.80;1.17;;;;;;;22.56;69.91;101569.66;5055996;58;1139081;-79
2022/07/02 10:39:29;;;;;;;4.17;1.10;;;;;;;22.59;71.40;101570.17;5089544;56;1139010;-77
2022/07/02 10:44:40;;;;;;;4.92;1.40;;;;;;;22.78;70.27;101572.48;5136639;57;1138988;-78
2022/07/02 10:49:48;;;;;;;5.03;1.40;;;;;;;22.85;67.47;101572.65;5107919;57;1138985;-77
2022/07/02 10:54:56;;;;;;;6.75;1.30;;;;;;;23.11;70.47;101576.42;5115340;56;1139113;-78
2022/07/02 11:00:03;;;;;;;3.95;0.90;;;;;;;23.25;67.59;101573.49;5120015;57;1139069;-80
2022/07/02 11:05:13;;;;;;;4.03;1.40;;;;;;;23.28;66.49;101548.85;5102464;57;1139019;-78
2022/07/02 11:10:28;;;;;;;2.72;1.00;;;;;;;23.49;65.94;101558.02;5049292;57;1139034;-78
2022/07/02 11:15:37;;;;;;;17.80;2.35;;;;;;;23.53;65.14;101557.16;5117664;57;1139077;-79
2022/07/02 11:20:43;;;;;;;2.58;1.02;;;;;;;23.40;63.79;101546.92;5117948;57;1141373;-78
2022/07/02 11:25:49;;;;;;;3.02;1.00;;;;;;;23.74;66.47;101537.11;5117587;57;1139029;-79
2022/07/02 11:31:00;;;;;;;5.62;1.45;;;;;;;24.03;63.84;101530.97;5079467;57;1138407;-77
2022/07/02 11:36:06;;;;;;;3.47;0.90;;;;;;;23.92;63.86;101528.70;5118482;57;1137078;-77
2022/07/02 11:41:28;;;;;;;3.35;1.00;;;;;;;24.11;64.45;101529.56;5147173;57;1136895;-78
2022/07/02 11:46:33;;;;;;;10.07;1.30;;;;;;;24.36;65.48;101522.58;5177011;57;1136907;-78
2022/07/02 11:51:39;;;;;;;1.60;0.78;;;;;;;24.56;65.51;101517.48;5119654;57;1139056;-78
2022/07/02 11:56:47;;;;;;;1.87;1.10;;;;;;;24.76;63.29;101519.92;5078954;57;1136996;-80
2022/07/02 12:01:55;;;;;;;8.23;1.45;;;;;;;24.87;63.78;101517.61;5122025;57;1137000;-78
2022/07/02 12:07:01;;;;;;;1.35;0.90;;;;;;;25.11;63.87;101512.41;5205894;56;1136955;-81
2022/07/02 12:12:07;;;;;;;2.20;1.05;;;;;;;25.09;59.63;101516.33;5142872;56;1136890;-81
2022/07/02 12:17:13;;;;;;;2.62;1.10;;;;;;;24.95;60.97;101514.48;5146430;56;1137024;-80
2022/07/02 12:22:28;;;;;;;3.95;1.50;;;;;;;24.92;59.75;101516.18;5167417;56;1136916;-77
2022/07/02 12:27:34;;;;;;;2.33;1.10;;;;;;;25.15;62.44;101519.64;5067006;57;1137212;-77
2022/07/02 12:32:41;;;;;;;3.10;1.05;;;;;;;25.16;61.23;101514.55;5055901;57;1136983;-78
2022/07/02 12:37:51;;;;;;;2.35;1.12;;;;;;;24.92;58.40;101515.66;5060320;57;1135051;-82
2022/07/02 12:42:56;;;;;;;2.47;0.80;;;;;;;24.84;51.69;101520.69;5103909;58;21197;-78
2022/07/02 12:48:10;;;;;;;3.07;1.03;;;;;;;24.77;54.44;101511.63;5102814;57;1134754;-77
2022/07/02 12:53:21;;;;;;;3.20;1.00;;;;;;;24.99;56.51;101503.62;5125150;57;1138917;-77
2022/07/02 12:58:27;;;;;;;7.40;1.35;;;;;;;25.18;54.62;101498.96;5085753;56;1139043;-78
2022/07/02 13:03:33;;;;;;;6.17;1.90;;;;;;;25.37;56.04;101494.77;5062024;57;1139035;-76
2022/07/02 13:08:38;;;;;;;6.58;1.20;;;;;;;25.61;56.41;101500.34;5062004;57;1139006;-79
2022/07/02 13:13:46;;;;;;;5.20;1.50;;;;;;;25.55;54.34;101500.08;5128203;56;1139057;-78
2022/07/02 13:18:51;;;;;;;3.52;1.30;;;;;;;25.41;56.16;101496.08;5141879;56;1138944;-79
2022/07/02 13:23:57;;;;;;;5.33;1.12;;;;;;;25.73;56.69;101490.69;5142693;56;1138884;-77
2022/07/02 13:29:03;;;;;;;1.92;0.95;;;;;;;25.93;56.36;101484.42;5142745;56;1138968;-78
2022/07/02 13:34:09;;;;;;;3.70;0.98;;;;;;;25.80;54.82;101488.89;5143254;56;1139084;-80
2022/07/02 13:39:15;;;;;;;6.05;1.15;;;;;;;25.62;52.97;101484.45;5143165;55;1138869;-76
2022/07/02 13:44:21;;;;;;;4.75;0.80;;;;;;;25.52;53.31;101484.20;5136545;56;1138980;-78
2022/07/02 13:49:27;;;;;;;17.15;1.80;;;;;;;25.50;51.54;101483.59;5093669;57;1138990;-79
2022/07/02 13:54:32;;;;;;;3.30;0.85;;;;;;;25.48;52.28;101482.09;5123104;56;1141075;-76
2022/07/02 13:59:38;;;;;;;2.00;1.00;;;;;;;25.72;52.80;101483.08;5139003;57;1139037;-79
2022/07/02 14:04:44;;;;;;;2.02;0.93;;;;;;;26.03;50.20;101478.65;5147199;56;1139142;-79
2022/07/02 14:09:49;;;;;;;0.95;0.90;;;;;;;26.16;49.47;101471.95;5229355;56;1138966;-79
2022/07/02 14:14:55;;;;;;;2.37;0.93;;;;;;;26.16;47.37;101476.03;5231252;56;1139041;-77
2022/07/02 14:20:01;;;;;;;3.42;0.60;;;;;;;26.29;50.62;101475.30;5231356;56;1139100;-76
2022/07/02 14:25:08;;;;;;;7.33;0.80;;;;;;;26.35;50.76;101472.33;5231403;56;1139013;-78
2022/07/02 14:30:14;;;;;;;3.52;1.25;;;;;;;26.27;51.00;101479.57;5218060;56;1139039;-79
2022/07/02 14:35:20;;;;;;;5.20;1.32;;;;;;;26.17;51.85;101479.06;5212518;56;1138878;-79
2022/07/02 14:40:26;;;;;;;32.90;4.03;;;;;;;26.34;52.21;101470.13;5231329;56;1138961;-79
2022/07/02 14:45:32;;;;;;;20.88;2.33;;;;;;;26.40;49.86;101465.28;5231112;56;1141331;-79
2022/07/02 14:50:38;;;;;;;4.20;1.20;;;;;;;26.32;50.30;101461.88;5230757;56;1141091;-79
2022/07/02 14:55:44;;;;;;;4.37;1.72;;;;;;;26.19;50.02;101468.02;5229717;56;1138879;-79
2022/07/02 15:00:49;;;;;;;3.30;0.95;;;;;;;26.15;49.98;101459.95;5209610;56;1138985;-79
2022/07/02 15:05:55;;;;;;;1.50;0.60;;;;;;;26.38;50.88;101454.30;5232196;56;1138892;-78
2022/07/02 15:11:03;;;;;;;1.85;0.62;;;;;;;26.59;49.37;101452.83;5231399;56;1139047;-78
2022/07/02 15:16:09;;;;;;;7.40;2.10;;;;;;;26.76;50.00;101452.81;5237274;56;1138928;-79
2022/07/02 15:21:23;;;;;;;1.02;0.80;;;;;;;26.93;48.67;101447.37;5174524;55;1139335;-78
2022/07/02 15:26:31;;;;;;;3.05;1.30;;;;;;;27.08;47.42;101447.73;5183538;56;1138977;-78
2022/07/02 15:31:41;;;;;;;5.83;1.40;;;;;;;27.22;47.46;101441.30;5234178;56;1139051;-79
2022/07/02 15:36:51;;;;;;;4.08;1.45;;;;;;;27.18;47.12;101438.17;5196524;56;1139016;-79
2022/07/02 15:41:59;;;;;;;8.38;1.00;;;;;;;27.09;47.35;101434.47;5174481;56;1137060;-79
2022/07/02 15:47:08;;;;;;;1.62;0.75;;;;;;;27.00;47.85;101428.92;5224395;56;1136964;-79
2022/07/02 15:52:25;;;;;;;6.72;1.77;;;;;;;26.85;48.96;101424.47;5219179;56;1136964;-79
2022/07/02 15:57:39;;;;;;;2.33;1.50;;;;;;;26.84;49.79;101426.02;5169374;55;1136922;-76
2022/07/02 16:02:47;;;;;;;3.00;0.90;;;;;;;26.86;49.41;101426.66;5149130;57;1137032;-74
2022/07/02 16:07:54;;;;;;;1.42;1.32;;;;;;;26.84;48.32;101414.65;5150911;56;1137009;-78
2022/07/02 16:13:00;;;;;;;2.00;1.20;;;;;;;26.77;48.03;101411.06;5210232;56;1136928;-78
2022/07/02 16:18:06;;;;;;;2.25;1.00;;;;;;;26.87;47.06;101421.03;5182625;56;1136964;-77
2022/07/02 16:23:14;;;;;;;5.10;0.90;;;;;;;26.95;47.93;101411.88;5228816;56;1137201;-80
2022/07/02 16:28:20;;;;;;;1.17;1.07;;;;;;;26.98;47.52;101410.64;5175127;56;1136971;-84
2022/07/02 16:33:59;;;;;;;1.72;1.32;;;;;;;27.00;47.71;101413.99;5141444;56;1136826;-76
2022/07/02 16:39:06;;;;;;;8.13;1.22;;;;;;;27.04;47.27;101412.00;5134353;57;1138989;-81
2022/07/02 16:44:13;;;;;;;1.05;0.98;;;;;;;27.01;45.43;101409.72;5133030;57;1139032;-79
2022/07/02 16:49:24;;;;;;;2.17;1.20;;;;;;;26.95;46.59;101408.65;5135223;57;1139041;-78
2022/07/02 16:54:31;;;;;;;1.30;0.93;;;;;;;26.93;46.54;101401.72;5134338;56;1139070;-78
2022/07/02 16:59:38;;;;;;;6.58;0.90;;;;;;;26.91;45.52;101405.15;5137218;57;1139141;-78
2022/07/02 17:04:47;;;;;;;2.58;1.00;;;;;;;26.84;44.47;101400.23;5140999;57;1139288;-79
2022/07/02 17:09:54;;;;;;;2.35;0.80;;;;;;;26.85;43.88;101404.11;5062527;57;1139034;-79
2022/07/02 17:15:01;;;;;;;1.37;1.27;;;;;;;26.73;43.89;101398.96;5126885;57;1139063;-78
2022/07/02 17:20:08;;;;;;;11.53;9.15;;;;;;;26.74;45.00;101401.12;5090163;57;1138973;-78
2022/07/02 17:25:13;;;;;;;13.35;11.70;;;;;;;26.71;44.48;101405.11;4918291;60;1141091;-78
2022/07/02 17:30:19;;;;;;;33.00;26.02;;;;;;;26.68;44.85;101394.66;4879120;60;1143399;-79
2022/07/02 17:35:25;;;;;;;7.80;4.17;;;;;;;26.59;44.56;101389.91;4928312;58;1143264;-78
2022/07/02 17:40:31;;;;;;;5.45;2.25;;;;;;;26.55;45.51;101380.52;4961608;59;1139271;-79
2022/07/02 17:45:37;;;;;;;9.48;5.55;;;;;;;26.50;45.27;101372.14;4977533;58;1139283;-80
2022/07/02 17:50:48;;;;;;;3.72;2.70;;;;;;;26.38;45.43;101371.57;4943404;58;1139269;-80
2022/07/02 17:55:53;;;;;;;12.23;3.53;;;;;;;26.24;45.36;101372.84;5103579;57;1138999;-79
2022/07/02 18:00:59;;;;;;;2.33;1.37;;;;;;;26.11;45.60;101367.87;5143822;57;1141136;-80
2022/07/02 18:06:05;;;;;;;3.47;1.60;;;;;;;25.95;46.11;101366.83;4980582;59;1139045;-79
2022/07/02 18:11:11;;;;;;;5.75;1.60;;;;;;;25.75;46.93;101358.04;5187981;56;1139019;-80
2022/07/02 18:16:17;;;;;;;3.00;1.50;;;;;;;25.65;47.57;101359.43;5178088;56;1139212;-78
2022/07/02 18:21:23;;;;;;;2.77;0.98;;;;;;;25.54;48.23;101362.11;5066226;58;1139263;-78
2022/07/02 18:26:29;;;;;;;5.58;0.90;;;;;;;25.38;47.85;101362.39;5107874;57;1139239;-79
2022/07/02 18:31:35;;;;;;;0.88;0.72;;;;;;;25.28;48.56;101360.03;5128926;57;1139254;-78
2022/07/02 18:36:40;;;;;;;2.00;0.90;;;;;;;25.20;49.36;101358.31;5150814;57;1139118;-79
2022/07/02 18:41:46;;;;;;;8.28;1.10;;;;;;;24.94;50.15;101346.36;5152751;57;1139097;-80
2022/07/02 18:46:52;;;;;;;6.83;1.25;;;;;;;24.94;50.15;101346.36;5153654;57;1139043;-79
2022/07/02 18:51:58;;;;;;;4.47;0.90;;;;;;;24.87;51.37;101361.16;5166138;56;1139068;-80
2022/07/02 18:57:05;;;;;;;2.83;0.93;;;;;;;24.71;51.98;101355.48;5152655;57;1138977;-80
2022/07/02 19:02:10;;;;;;;4.53;1.60;;;;;;;24.57;52.56;101358.22;5127989;56;1139001;-81
2022/07/02 19:07:17;;;;;;;9.33;1.60;;;;;;;24.43;53.16;101360.77;5164881;57;1139064;-78
2022/07/02 19:12:23;;;;;;;7.72;1.27;;;;;;;24.33;54.05;101356.14;5191334;56;1138991;-80
2022/07/02 19:17:29;;;;;;;4.47;1.70;;;;;;;24.16;54.45;101364.94;5164677;57;1139017;-78
2022/07/02 19:22:35;;;;;;;4.72;1.40;;;;;;;24.00;55.15;101373.23;5187720;56;1136980;-80
2022/07/02 19:33:11;;;;;;;10.65;2.37;;;;;;;24.08;57.10;101380.42;5169078;56;1139070;-82
2022/07/02 19:38:16;;;;;;;;;;;;;;;24.07;57.83;101405.26;5168326;57;1139281;-80
2022/07/02 19:43:22;;;;;;;9.38;3.65;;;;;;;24.00;57.93;101408.36;5165401;56;974240;-82
2022/07/02 19:48:28;;;;;;;4.90;2.70;;;;;;;23.85;58.36;101398.05;5080719;58;1135114;-80
2022/07/02 19:53:33;;;;;;;8.40;2.92;;;;;;;23.81;58.65;101412.45;5078750;58;1136997;-78
2022/07/02 19:58:39;;;;;;;4.87;2.50;;;;;;;23.75;59.00;101412.34;4998305;59;1137217;-81
2022/07/02 20:03:45;;;;;;;10.53;5.72;;;;;;;23.66;59.45;101404.00;4994728;59;1137349;-80
2022/07/02 20:08:51;;;;;;;12.50;7.65;;;;;;;23.59;60.28;101411.14;5067307;58;1139290;-80
2022/07/02 20:13:57;;;;;;;17.15;5.50;;;;;;;23.52;60.59;101418.30;5140975;57;1139042;-81
2022/07/02 20:19:02;;;;;;;11.20;7.05;;;;;;;23.42;61.17;101412.59;5226485;56;1139025;-79
2022/07/02 20:24:08;;;;;;;24.32;14.10;;;;;;;23.31;61.53;101415.72;5152559;56;1139101;-79
2022/07/02 20:29:15;;;;;;;20.30;9.83;;;;;;;23.16;61.61;101414.81;5064483;57;1141110;-78
2022/07/02 20:34:21;;;;;;;11.75;4.53;;;;;;;23.02;61.92;101421.83;5149021;57;1136963;-79
2022/07/02 20:39:26;;;;;;;16.10;4.70;;;;;;;22.84;62.40;101415.86;4947188;59;1136973;-79
2022/07/02 20:44:33;;;;;;;15.44;4.68;;;;;;;22.61;63.63;101418.99;5084319;57;1141037;-82
2022/07/02 20:49:39;;;;;;;8.46;2.98;;;;;;;22.38;64.03;101418.39;5028144;58;1141040;-80
2022/07/02 20:54:44;;;;;;;7.30;2.77;;;;;;;22.30;64.96;101411.70;5094426;56;1139162;-81
2022/07/02 20:59:50;;;;;;;4.90;2.63;;;;;;;22.24;65.49;101408.84;5227087;56;1138918;-79
2022/07/02 21:04:56;;;;;;;10.25;3.42;;;;;;;22.22;65.97;101409.02;5238085;56;1138978;-79
2022/07/02 21:10:01;;;;;;;11.28;2.72;;;;;;;22.17;66.00;101404.64;5231443;56;1141089;-79
2022/07/02 21:15:08;;;;;;;8.70;3.10;;;;;;;22.02;66.24;101405.86;5141250;57;1141067;-81
2022/07/02 21:20:14;;;;;;;5.22;3.40;;;;;;;21.91;66.84;101403.50;5073269;57;1138369;-81
2022/07/02 21:25:20;;;;;;;11.63;3.20;;;;;;;21.83;67.12;101404.88;5155706;56;1139187;-81
2022/07/02 21:30:26;;;;;;;6.60;3.60;;;;;;;21.74;67.12;101393.77;5100408;57;1141146;-80
2022/07/02 21:35:32;;;;;;;4.35;2.20;;;;;;;21.52;67.35;101402.55;5158259;56;1139062;-80
2022/07/02 21:40:38;;;;;;;5.97;2.55;;;;;;;21.44;68.06;101404.72;5194532;56;1138921;-79
2022/07/02 21:45:43;;;;;;;8.78;2.62;;;;;;;21.36;68.42;101398.84;5216402;56;1138966;-80
2022/07/02 21:50:49;;;;;;;4.80;2.17;;;;;;;21.30;69.14;101400.84;5150835;56;1139002;-80
2022/07/02 21:55:55;;;;;;;4.05;2.33;;;;;;;21.32;69.35;101396.14;5171987;56;1139146;-79
2022/07/02 22:01:01;;;;;;;2.27;2.10;;;;;;;21.33;69.63;101400.52;5199027;56;1138954;-82
2022/07/02 22:06:06;;;;;;;3.33;1.95;;;;;;;21.19;69.59;101392.23;5191807;56;1138964;-81
2022/07/02 22:11:12;;;;;;;3.70;2.15;;;;;;;21.12;70.47;101395.23;5190123;56;1139486;-79
2022/07/02 22:16:20;;;;;;;6.03;1.98;;;;;;;20.97;70.64;101388.33;5105815;57;1139028;-79
2022/07/02 22:21:26;;;;;;;2.10;2.00;;;;;;;20.80;71.03;101384.76;5146861;57;1139095;-79
2022/07/02 22:26:32;;;;;;;1.70;1.60;;;;;;;20.64;71.43;101385.55;5142050;57;1139016;-81
2022/07/02 22:31:38;;;;;;;2.12;1.98;;;;;;;20.46;71.92;101382.66;5145070;56;1139010;-79
2022/07/02 22:36:43;;;;;;;4.92;1.72;;;;;;;20.26;71.69;101374.81;5136736;57;1139094;-79
2022/07/02 22:41:49;;;;;;;1.87;1.77;;;;;;;20.13;73.04;101373.58;5160615;56;1138979;-82
2022/07/02 22:46:55;;;;;;;2.00;1.90;;;;;;;20.12;73.68;101368.70;5162857;56;1139031;-80
2022/07/02 22:52:00;;;;;;;4.80;2.00;;;;;;;;;;5199757;56;1139025;-79
2022/07/02 22:57:06;;;;;;;1.92;1.82;;;;;;;20.10;73.70;101373.38;5187786;56;817949;-79
2022/07/02 23:02:12;;;;;;;2.42;2.22;;;;;;;19.92;74.45;101382.00;5188087;56;1137129;-82
2022/07/02 23:07:19;;;;;;;7.42;1.95;;;;;;;19.92;74.45;101382.00;5211569;56;1139033;-78
2022/07/02 23:12:25;;;;;;;2.67;2.47;;;;;;;19.81;74.27;101384.47;5157104;56;1138972;-81
2022/07/02 23:17:32;;;;;;;2.30;2.15;;;;;;;19.69;74.56;101379.52;5150938;57;1138984;-82